Novato, CA

1:48 AM PST on November 20, 2019 (GMT -0800)
Gnoss

Weather History for KDVO - October, 2019

Change the Weather History Date:

Tuesday, October 22, 2019

  Actual Average (KAPC) Record (KAPC)
Temperature  
Mean Temperature 66 °F -  
Max Temperature 89 °F 74 °F 87 °F (2008)
Min Temperature 44 °F 48 °F 37 °F (2008)
Cooling Degree Days 2    
Growing Degree Days 16 (Base 50)    
Moisture  
Dew Point 46 °F    
Average Humidity 55    
Maximum Humidity 100    
Minimum Humidity 18    
Precipitation  
Precipitation 0.00 in - - ()
Sea Level Pressure  
Sea Level Pressure 30.12 in    
Wind  
Wind Speed 1 mph ()    
Max Wind Speed 9 mph    
Max Gust Speed -    
Visibility 9.8 miles    
Events      
Averages and records for this station are not official NWS values.
T = Trace of Precipitation, MM = Missing Value Source: Averaged Metar Reports

Daily Weather History Graph

Daily Weather History Graph

Search for Another Location

Airport or City:

Astronomy

Oct. 22, 2019 Rise Set
Actual Time 7:25 AM PDT 6:23 PM PDT
Civil Twilight 6:58 AM PDT 6:49 PM PDT
Nautical Twilight 6:28 AM PDT 7:20 PM PDT
Astronomical Twilight 5:57 AM PDT 7:51 PM PDT
Moon 12:49 AM PDT (10/22) 3:29 PM PDT (10/22)
Length of Visible Light 11h 51m
Length of Day
10h 57m
Last Quarter, 36% of the Moon is Illuminated
Oct 22
Last Quarter
Oct 27
New
Nov 4
First Quarter
Nov 12
Full
Nov 19
Last Quarter

Hourly Weather History & Observations

Time (PDT) Temp. Windchill Dew Point Humidity Pressure Visibility Wind Dir Wind Speed Gust Speed Precip Events Conditions
12:15 AM 57.2 °F - 46.4 °F 67% 30.17 in 10.0 mi Calm Calm - N/A   Clear
12:35 AM 57.2 °F - 46.4 °F 67% 30.17 in 10.0 mi Calm Calm - N/A   Clear
12:55 AM 55.4 °F - 46.4 °F 72% 30.16 in 10.0 mi Calm Calm - N/A   Clear
1:15 AM 55.4 °F - 46.4 °F 72% 30.17 in 10.0 mi Calm Calm - N/A   Clear
1:35 AM 55.4 °F - 46.4 °F 72% 30.17 in 9.0 mi Calm Calm - N/A   Clear
1:55 AM 55.4 °F - 44.6 °F 67% 30.17 in 10.0 mi Calm Calm - N/A   Clear
2:15 AM 55.4 °F - 46.4 °F 72% 30.17 in 10.0 mi Calm Calm - N/A   Clear
2:35 AM 53.6 °F - 44.6 °F 72% 30.17 in 10.0 mi Calm Calm - N/A   Clear
2:55 AM 53.6 °F - 44.6 °F 72% 30.17 in 10.0 mi Calm Calm - N/A   Clear
3:15 AM 51.8 °F - 42.8 °F 71% 30.17 in 10.0 mi Calm Calm - N/A   Clear
3:35 AM 51.8 °F - 44.6 °F 76% 30.16 in 10.0 mi Calm Calm - N/A   Clear
3:55 AM 55.4 °F - 48.2 °F 77% 30.16 in 10.0 mi SSW 3.5 mph - N/A   Clear
4:15 AM 51.8 °F - 46.4 °F 82% 30.16 in 10.0 mi Calm Calm - N/A   Clear
4:35 AM 51.8 °F - 44.6 °F 76% 30.17 in 10.0 mi Calm Calm - N/A   Clear
4:55 AM 53.6 °F - 48.2 °F 82% 30.17 in 10.0 mi SSW 3.5 mph - N/A   Clear
5:15 AM 53.6 °F - 48.2 °F 82% 30.17 in 10.0 mi SSW 4.6 mph - N/A   Clear
5:35 AM 44.6 °F 43.1 °F 39.2 °F 81% 30.18 in 10.0 mi NW 3.5 mph - N/A   Clear
5:55 AM 48.2 °F - 44.6 °F 87% 30.17 in 10.0 mi Calm Calm - N/A   Clear
6:15 AM 50.0 °F - 44.6 °F 82% 30.18 in 10.0 mi Calm Calm - N/A   Clear
6:35 AM 48.2 °F - 44.6 °F 87% 30.18 in 10.0 mi Calm Calm - N/A   Clear
6:55 AM 48.2 °F - 46.4 °F 93% 30.18 in 10.0 mi Calm Calm - N/A   Clear
7:15 AM 46.4 °F - 42.8 °F 87% 30.19 in 10.0 mi Calm Calm - N/A   Clear
7:35 AM 46.4 °F - 46.4 °F 100% 30.19 in 10.0 mi Calm Calm - N/A   Clear
7:55 AM 48.2 °F - 46.4 °F 93% 30.19 in 10.0 mi Calm Calm - N/A   Clear
8:15 AM 50.0 °F - 44.6 °F 82% 30.20 in 10.0 mi Calm Calm - N/A   Clear
8:55 AM 57.2 °F - 48.2 °F 72% 30.21 in 10.0 mi Calm Calm - N/A   Clear
9:15 AM 60.8 °F - 48.2 °F 63% 30.21 in 10.0 mi Calm Calm - N/A   Clear
9:35 AM 62.6 °F - 50.0 °F 63% 30.21 in 10.0 mi Calm Calm - N/A   Clear
9:55 AM 66.2 °F - 51.8 °F 60% 30.21 in 10.0 mi Calm Calm - N/A   Clear
10:15 AM 69.8 °F - 50.0 °F 49% 30.20 in 10.0 mi Calm Calm - N/A   Clear
10:35 AM 71.6 °F - 50.0 °F 46% 30.20 in 10.0 mi Calm Calm - N/A   Clear
10:55 AM 73.4 °F - 48.2 °F 41% 30.19 in 10.0 mi NNE 4.6 mph - N/A   Clear
11:15 AM 77.0 °F - 48.2 °F 36% 30.19 in 10.0 mi Calm Calm - N/A   Clear
11:35 AM 77.0 °F - 48.2 °F 36% 30.19 in 7.0 mi NNE 4.6 mph - N/A   Clear
11:55 AM 80.6 °F - 48.2 °F 32% 30.18 in 10.0 mi Variable 4.6 mph - N/A   Clear
12:15 PM 80.6 °F - 46.4 °F 30% 30.18 in 10.0 mi NE 4.6 mph - N/A   Clear
12:35 PM 82.4 °F - 48.2 °F 30% 30.17 in 9.0 mi Variable 4.6 mph - N/A   Clear
12:55 PM 84.2 °F - 46.4 °F 27% 30.15 in 9.0 mi Calm Calm - N/A   Clear
1:15 PM 86.0 °F - 46.4 °F 25% 30.14 in 9.0 mi South 3.5 mph - N/A   Clear
1:35 PM 86.0 °F - 46.4 °F 25% 30.12 in 8.0 mi Calm Calm - N/A   Clear
1:55 PM 89.6 °F - 41.0 °F 18% 30.11 in 9.0 mi North 9.2 mph - N/A   Clear
2:15 PM 89.6 °F - 41.0 °F 18% 30.10 in 10.0 mi Variable 4.6 mph - N/A   Clear
2:35 PM 86.0 °F - 48.2 °F 27% 30.09 in 10.0 mi ESE 9.2 mph - N/A   Clear
2:55 PM 84.2 °F - 48.2 °F 29% 30.09 in 9.0 mi ESE 8.1 mph - N/A   Clear
3:15 PM 84.2 °F - 50.0 °F 30% 30.08 in 10.0 mi ESE 8.1 mph - N/A   Clear
3:35 PM 86.0 °F - 46.4 °F 25% 30.08 in 10.0 mi SE 8.1 mph - N/A   Clear
3:55 PM 84.2 °F - 48.2 °F 29% 30.07 in 9.0 mi SE 6.9 mph - N/A   Clear
4:15 PM 84.2 °F - 48.2 °F 29% 30.07 in 10.0 mi SE 6.9 mph - N/A   Clear
4:35 PM 84.2 °F - 48.2 °F 29% 30.06 in 10.0 mi ESE 6.9 mph - N/A   Clear
4:55 PM 82.4 °F - 46.4 °F 28% 30.06 in 10.0 mi ESE 6.9 mph - N/A   Clear
5:15 PM 82.4 °F - 48.2 °F 30% 30.05 in 10.0 mi SE 4.6 mph - N/A   Clear
5:35 PM 82.4 °F - 46.4 °F 28% 30.04 in 10.0 mi Calm Calm - N/A   Clear
5:55 PM 80.6 °F - 46.4 °F 30% 30.04 in 10.0 mi Calm Calm - N/A   Clear
6:15 PM 75.2 °F - 46.4 °F 36% 30.04 in 10.0 mi West 3.5 mph - N/A   Clear
6:35 PM 66.2 °F - 46.4 °F 49% 30.04 in 10.0 mi Calm Calm - N/A   Clear
6:55 PM 69.8 °F - 46.4 °F 43% 30.04 in 10.0 mi Calm Calm - N/A   Clear
7:15 PM 68.0 °F - 44.6 °F 43% 30.04 in 10.0 mi Calm Calm - N/A   Clear
7:35 PM 68.0 °F - 44.6 °F 43% 30.04 in 10.0 mi Calm Calm - N/A   Clear
7:55 PM 66.2 °F - 48.2 °F 52% 30.04 in 10.0 mi Calm Calm - N/A   Clear
8:15 PM 62.6 °F - 46.4 °F 55% 30.05 in 10.0 mi Calm Calm - N/A   Clear
8:35 PM 62.6 °F - 46.4 °F 55% 30.05 in 10.0 mi Calm Calm - N/A   Clear
8:55 PM 62.6 °F - 44.6 °F 52% 30.05 in 10.0 mi Calm Calm - N/A   Clear
9:15 PM 60.8 °F - 44.6 °F 55% 30.05 in 10.0 mi NNW 5.8 mph - N/A   Clear
9:35 PM 60.8 °F - 46.4 °F 59% 30.05 in 10.0 mi Calm Calm - N/A   Clear
9:55 PM 60.8 °F - 44.6 °F 55% 30.05 in 10.0 mi Calm Calm - N/A   Clear
10:15 PM 59.0 °F - 44.6 °F 59% 30.05 in 10.0 mi Calm Calm - N/A   Clear
10:35 PM 60.8 °F - 46.4 °F 59% 30.05 in 10.0 mi SE 4.6 mph - N/A   Clear
10:55 PM 53.6 °F - 42.8 °F 67% 30.05 in 10.0 mi NW 3.5 mph - N/A   Clear
11:15 PM 55.4 °F - 42.8 °F 63% 30.05 in 10.0 mi Calm Calm - N/A   Clear
11:35 PM 53.6 °F - 42.8 °F 67% 30.05 in 10.0 mi North - - N/A   Clear
11:55 PM 55.4 °F - 44.6 °F 67% 30.04 in 10.0 mi Calm Calm - N/A   Clear